Time;durP1;ratioP1;P1;durP2;ratioP2;P2;SDS_P1;SDS_P2;PMS_P1;PMS_P2;Temp;Humidity;BMP_temperature;BMP_pressure;BME280_temperature;BME280_humidity;BME280_pressure;Samples;Min_cycle;Max_cycle;Signal;HPM_P1;HPM_P2
2021/12/10 00:00:38;;;;;;;23.17;7.53;;;4.50;99.90;;;;;;5019408;28;20219;-71
2021/12/10 00:03:10;;;;;;;30.23;9.03;;;4.50;99.90;;;;;;5023006;28;20223;-71
2021/12/10 00:05:45;;;;;;;24.80;7.97;;;4.40;99.90;;;;;;5029228;28;20279;-72
2021/12/10 00:08:12;;;;;;;25.03;7.80;;;4.40;99.90;;;;;;5025178;28;20229;-73
2021/12/10 00:10:45;;;;;;;24.20;8.67;;;4.40;99.90;;;;;;5023000;28;20582;-73
2021/12/10 00:13:12;;;;;;;34.97;10.27;;;4.40;99.90;;;;;;5020887;28;20234;-72
2021/12/10 00:15:41;;;;;;;21.50;6.43;;;4.40;99.90;;;;;;5025918;28;20217;-72
2021/12/10 00:18:11;;;;;;;23.40;6.83;;;4.40;99.90;;;;;;5021511;28;20216;-71
2021/12/10 00:20:39;;;;;;;26.63;8.17;;;4.40;99.90;;;;;;5029275;28;20225;-72
2021/12/10 00:23:13;;;;;;;27.43;8.40;;;4.50;99.90;;;;;;5025932;28;20311;-73
2021/12/10 00:25:45;;;;;;;25.43;8.30;;;4.50;99.90;;;;;;5023655;28;20663;-72
2021/12/10 00:28:19;;;;;;;26.13;8.50;;;4.50;99.90;;;;;;5022190;28;20666;-72
2021/12/10 00:31:03;;;;;;;22.13;7.23;;;4.60;99.90;;;;;;5025708;28;20217;-71
2021/12/10 00:33:39;;;;;;;27.00;8.83;;;4.60;99.90;;;;;;5027289;28;20252;-73
2021/12/10 00:36:07;;;;;;;26.20;8.30;;;4.70;99.90;;;;;;5028874;28;20311;-72
2021/12/10 00:38:36;;;;;;;20.63;6.33;;;4.70;99.90;;;;;;5023858;28;20209;-71
2021/12/10 00:41:06;;;;;;;22.20;6.57;;;3.10;99.90;;;;;;5032359;28;20218;-71
2021/12/10 00:43:32;;;;;;;22.10;7.53;;;4.70;99.90;;;;;;5025075;28;20206;-73
2021/12/10 00:45:59;;;;;;;23.27;8.17;;;4.80;99.90;;;;;;5026008;28;20567;-71
2021/12/10 00:48:27;;;;;;;19.93;6.37;;;4.80;99.90;;;;;;5003459;28;20412;-71
2021/12/10 00:50:57;;;;;;;26.07;8.83;;;4.80;99.90;;;;;;5033952;28;20201;-71
2021/12/10 00:53:25;;;;;;;24.67;7.80;;;4.90;99.90;;;;;;5029488;28;20212;-71
2021/12/10 00:55:54;;;;;;;24.33;8.03;;;4.90;99.90;;;;;;5008369;28;20233;-71
2021/12/10 00:58:22;;;;;;;20.67;7.70;;;4.90;99.90;;;;;;5027283;28;20671;-73
2021/12/10 01:00:52;;;;;;;31.90;9.77;;;4.90;99.90;;;;;;5022813;28;20202;-72
2021/12/10 01:03:23;;;;;;;26.77;8.70;;;4.90;99.90;;;;;;5021277;28;20237;-72
2021/12/10 01:05:52;;;;;;;22.83;7.73;;;4.90;99.90;;;;;;5022255;28;20215;-72
2021/12/10 01:08:20;;;;;;;22.07;7.10;;;4.90;99.90;;;;;;5018348;28;20219;-72
2021/12/10 01:10:57;;;;;;;21.83;7.27;;;4.90;99.90;;;;;;5031721;28;20315;-71
2021/12/10 01:13:28;;;;;;;23.60;8.37;;;4.90;99.90;;;;;;5022697;28;20205;-72
2021/12/10 01:16:14;;;;;;;25.50;8.80;;;4.90;99.90;;;;;;5031010;28;20413;-72
2021/12/10 01:24:33;;;;;;;21.50;7.37;;;4.90;99.90;;;;;;5024773;28;20313;-72
2021/12/10 01:27:11;;;;;;;25.23;8.17;;;4.90;99.90;;;;;;5021246;28;20732;-72
2021/12/10 01:29:42;;;;;;;26.00;7.87;;;4.60;99.90;;;;;;5022386;28;20296;-72
2021/12/10 01:32:13;;;;;;;29.60;8.77;;;4.90;99.90;;;;;;5027222;28;20224;-71
2021/12/10 01:34:41;;;;;;;26.87;8.47;;;4.90;99.90;;;;;;5031157;28;20662;-71
2021/12/10 01:37:08;;;;;;;28.00;7.97;;;4.90;99.90;;;;;;5028630;28;20214;-71
2021/12/10 01:39:37;;;;;;;25.30;8.00;;;4.80;99.90;;;;;;5044608;28;20625;-71
2021/12/10 01:42:16;;;;;;;24.03;8.10;;;4.80;99.90;;;;;;5027725;28;20233;-71
2021/12/10 01:44:45;;;;;;;24.77;7.37;;;4.70;99.90;;;;;;5024111;28;20291;-72
2021/12/10 01:47:14;;;;;;;27.27;8.67;;;4.60;99.90;;;;;;5026496;28;20346;-72
2021/12/10 01:49:43;;;;;;;22.57;7.10;;;4.50;99.90;;;;;;5026138;28;20236;-72
2021/12/10 01:52:11;;;;;;;23.83;7.67;;;4.40;99.90;;;;;;5029229;28;20368;-72
2021/12/10 01:54:42;;;;;;;26.30;7.57;;;4.40;99.90;;;;;;5027621;28;20210;-71
2021/12/10 01:57:13;;;;;;;27.77;7.93;;;4.30;99.90;;;;;;5020225;28;20621;-73
2021/12/10 01:59:42;;;;;;;21.67;5.80;;;5.10;99.90;;;;;;5032515;28;20677;-72
2021/12/10 02:02:12;;;;;;;23.83;7.43;;;4.20;99.90;;;;;;5018209;28;20233;-71
2021/12/10 02:04:41;;;;;;;26.13;7.63;;;4.10;99.90;;;;;;5020374;28;21528;-71
2021/12/10 02:07:12;;;;;;;25.37;8.00;;;4.10;99.90;;;;;;5034076;28;20278;-72
2021/12/10 02:09:39;;;;;;;28.30;8.30;;;4.00;99.90;;;;;;5028288;28;20255;-72
2021/12/10 02:12:07;;;;;;;27.23;8.10;;;3.90;99.90;;;;;;5032857;28;20240;-72
2021/12/10 02:14:35;;;;;;;29.23;8.50;;;4.00;99.90;;;;;;5037264;28;20666;-71
2021/12/10 02:17:05;;;;;;;25.70;7.50;;;5.60;99.90;;;;;;5025765;28;20221;-72
2021/12/10 02:19:32;;;;;;;23.60;7.10;;;3.90;99.90;;;;;;5023177;28;20301;-72
2021/12/10 02:22:01;;;;;;;27.53;8.07;;;3.90;99.90;;;;;;5025995;28;20235;-71
2021/12/10 02:24:28;;;;;;;24.97;6.97;;;3.80;99.90;;;;;;5025103;28;20229;-71
2021/12/10 02:26:58;;;;;;;27.20;8.20;;;3.80;99.90;;;;;;5022278;28;20571;-71
2021/12/10 02:29:33;;;;;;;23.90;7.03;;;3.70;99.90;;;;;;5024961;28;20232;-72
2021/12/10 02:32:00;;;;;;;27.10;7.33;;;3.70;99.90;;;;;;5027292;28;20536;-71
2021/12/10 02:34:28;;;;;;;26.30;7.80;;;4.10;99.90;;;;;;5023465;28;20214;-71
2021/12/10 02:36:56;;;;;;;28.93;7.90;;;3.60;99.90;;;;;;5021801;28;20214;-70
2021/12/10 02:39:28;;;;;;;30.20;8.63;;;3.60;99.90;;;;;;5037068;28;20201;-72
2021/12/10 02:42:05;;;;;;;;;;;;;;;;;;;;;
2021/12/10 02:44:33;;;;;;;23.27;6.83;;;3.60;99.90;;;;;;5004152;28;20217;-70
2021/12/10 02:47:01;;;;;;;27.50;8.27;;;3.50;99.90;;;;;;5003836;28;20217;-71
2021/12/10 02:49:29;;;;;;;23.47;6.17;;;3.50;99.90;;;;;;5024423;28;20228;-71
2021/12/10 02:51:57;;;;;;;20.53;5.13;;;3.50;99.90;;;;;;5023402;28;20229;-71
2021/12/10 02:54:33;;;;;;;30.50;8.27;;;2.10;99.90;;;;;;5024267;28;20227;-71
2021/12/10 02:57:02;;;;;;;26.60;7.57;;;3.50;99.90;;;;;;5027897;28;20206;-71
2021/12/10 02:59:29;;;;;;;34.50;8.97;;;3.40;99.90;;;;;;5025970;28;20727;-70
2021/12/10 03:01:56;;;;;;;28.57;8.20;;;3.40;99.90;;;;;;5030225;28;20249;-72
2021/12/10 03:04:23;;;;;;;20.60;6.57;;;3.40;99.90;;;;;;5029516;28;20249;-70
2021/12/10 03:06:53;;;;;;;26.70;7.47;;;3.40;99.90;;;;;;5032759;28;20209;-71
2021/12/10 03:09:22;;;;;;;31.27;8.00;;;3.40;99.90;;;;;;5010980;28;20234;-71
2021/12/10 03:11:53;;;;;;;20.83;5.80;;;3.30;99.90;;;;;;5031484;28;20247;-71
2021/12/10 03:14:23;;;;;;;20.57;5.20;;;3.30;99.90;;;;;;5028740;28;20225;-72
2021/12/10 03:16:52;;;;;;;26.00;6.33;;;3.30;99.90;;;;;;5038797;28;20670;-71
2021/12/10 03:19:19;;;;;;;24.83;6.80;;;3.30;99.90;;;;;;5029274;28;20451;-71
2021/12/10 03:21:49;;;;;;;20.73;5.00;;;3.30;99.90;;;;;;5010782;28;20226;-71
2021/12/10 03:24:20;;;;;;;23.73;6.73;;;3.30;99.90;;;;;;5026733;28;20206;-71
2021/12/10 03:26:47;;;;;;;27.03;6.10;;;3.30;99.90;;;;;;5023350;28;20202;-72
2021/12/10 03:29:15;;;;;;;29.87;7.70;;;3.30;99.90;;;;;;5021906;28;20228;-72
2021/12/10 03:31:42;;;;;;;32.17;7.73;;;3.30;99.90;;;;;;5026302;28;20241;-72
2021/12/10 03:34:09;;;;;;;27.90;6.67;;;3.30;99.90;;;;;;5026015;28;20212;-73
2021/12/10 03:36:36;;;;;;;22.80;6.10;;;3.30;99.90;;;;;;5024329;28;20229;-73
2021/12/10 03:39:05;;;;;;;20.67;4.77;;;3.30;99.90;;;;;;5032340;28;20887;-72
2021/12/10 03:41:32;;;;;;;28.03;6.23;;;3.30;99.90;;;;;;5019659;28;20236;-72
2021/12/10 03:43:59;;;;;;;31.33;6.37;;;3.30;99.90;;;;;;5022933;28;20206;-71
2021/12/10 03:46:27;;;;;;;20.27;5.10;;;3.30;99.90;;;;;;5023464;28;20219;-71
2021/12/10 03:48:54;;;;;;;20.83;5.20;;;3.40;99.90;;;;;;5025606;28;20648;-72
2021/12/10 03:51:24;;;;;;;23.70;5.87;;;3.30;99.90;;;;;;5021662;28;20240;-71
2021/12/10 03:53:52;;;;;;;23.83;5.87;;;3.40;99.90;;;;;;5005238;28;20210;-71
2021/12/10 03:56:23;;;;;;;22.57;6.07;;;3.40;99.90;;;;;;5024357;28;20232;-71
2021/12/10 03:58:51;;;;;;;22.30;5.10;;;3.40;99.90;;;;;;5023649;28;20624;-71
2021/12/10 04:01:21;;;;;;;28.23;5.97;;;3.40;99.90;;;;;;5021737;28;20245;-71
2021/12/10 04:03:52;;;;;;;23.97;5.47;;;3.40;99.90;;;;;;5022933;28;20225;-71
2021/12/10 04:06:19;;;;;;;23.73;5.67;;;3.40;99.90;;;;;;5033936;28;20217;-71
2021/12/10 04:08:47;;;;;;;19.83;4.67;;;3.40;99.90;;;;;;5024422;28;20563;-71
2021/12/10 04:11:16;;;;;;;25.80;5.50;;;3.40;99.90;;;;;;5022818;28;20597;-69
2021/12/10 04:13:44;;;;;;;26.73;6.13;;;3.40;99.90;;;;;;5041096;28;20628;-69
2021/12/10 04:16:11;;;;;;;24.07;5.57;;;3.30;99.90;;;;;;5022759;28;20582;-69
2021/12/10 04:18:38;;;;;;;23.73;5.20;;;3.40;99.90;;;;;;5026872;28;20210;-69
2021/12/10 04:21:09;;;;;;;21.10;4.77;;;3.40;99.90;;;;;;5032274;28;20202;-69
2021/12/10 04:23:37;;;;;;;23.80;5.17;;;3.40;99.90;;;;;;5024641;28;20214;-69
2021/12/10 04:26:04;;;;;;;23.70;5.57;;;3.40;99.90;;;;;;5021527;28;20580;-69
2021/12/10 04:28:32;;;;;;;18.50;4.70;;;3.40;99.90;;;;;;5020764;28;20214;-68
2021/12/10 04:31:00;;;;;;;23.27;4.83;;;3.40;99.90;;;;;;5025882;28;20229;-69
2021/12/10 04:33:27;;;;;;;23.97;5.17;;;3.40;99.90;;;;;;5017251;28;20236;-69
2021/12/10 04:35:56;;;;;;;22.63;5.13;;;3.40;99.90;;;;;;5025419;28;20220;-69
2021/12/10 04:38:28;;;;;;;23.27;5.13;;;3.40;99.90;;;;;;4999581;28;20225;-70
2021/12/10 04:41:00;;;;;;;22.83;4.90;;;3.40;99.90;;;;;;5027724;28;20204;-70
2021/12/10 04:43:27;;;;;;;21.47;5.00;;;3.40;99.90;;;;;;5021824;28;20235;-70
2021/12/10 04:45:56;;;;;;;21.80;4.73;;;3.50;99.90;;;;;;5020284;28;21160;-70
2021/12/10 04:48:23;;;;;;;19.53;4.57;;;3.50;99.90;;;;;;5018030;28;20214;-70
2021/12/10 04:50:50;;;;;;;26.23;5.57;;;3.50;99.90;;;;;;5023395;28;20713;-70
2021/12/10 04:53:17;;;;;;;24.23;4.93;;;3.60;99.90;;;;;;5024396;28;20607;-70
2021/12/10 04:55:46;;;;;;;19.77;4.80;;;3.60;99.90;;;;;;5018237;28;20648;-69
2021/12/10 04:58:13;;;;;;;25.87;5.50;;;3.60;99.90;;;;;;5020518;28;20293;-69
2021/12/10 05:00:44;;;;;;;22.87;5.40;;;3.60;99.90;;;;;;5019532;28;20212;-70
2021/12/10 05:03:12;;;;;;;19.83;4.47;;;3.60;99.90;;;;;;5023965;28;20295;-69
2021/12/10 05:05:41;;;;;;;24.47;5.13;;;3.60;99.90;;;;;;5024034;28;20205;-69
2021/12/10 05:08:09;;;;;;;17.93;3.97;;;3.60;99.90;;;;;;5005145;28;20682;-70
2021/12/10 05:10:36;;;;;;;25.00;4.97;;;3.60;99.90;;;;;;5025435;28;20577;-69
2021/12/10 05:13:04;;;;;;;19.43;4.27;;;3.60;99.90;;;;;;5028422;28;20241;-69
2021/12/10 05:15:34;;;;;;;24.70;4.97;;;3.70;99.90;;;;;;5027837;28;20212;-69
2021/12/10 05:18:01;;;;;;;19.60;4.90;;;3.70;99.90;;;;;;5029683;28;20675;-69
2021/12/10 05:20:32;;;;;;;21.23;4.43;;;3.70;99.90;;;;;;5032881;28;20217;-70
2021/12/10 05:23:00;;;;;;;20.90;4.40;;;3.70;99.90;;;;;;5035785;28;20273;-69
2021/12/10 05:25:29;;;;;;;21.60;4.53;;;3.70;99.90;;;;;;5025424;28;20206;-70
2021/12/10 05:27:58;;;;;;;25.70;5.07;;;3.80;99.90;;;;;;5022914;28;20218;-70
2021/12/10 05:30:28;;;;;;;23.40;4.70;;;3.80;99.90;;;;;;5023375;28;20612;-69
2021/12/10 05:32:55;;;;;;;23.70;5.20;;;3.80;99.90;;;;;;5026016;28;20574;-70
2021/12/10 05:35:23;;;;;;;19.73;4.43;;;3.80;99.90;;;;;;5024020;28;20209;-70
2021/12/10 05:37:49;;;;;;;21.07;4.57;;;3.80;99.90;;;;;;5026575;28;20202;-70
2021/12/10 05:40:17;;;;;;;21.60;4.53;;;3.90;99.90;;;;;;5034023;28;20221;-70
2021/12/10 05:42:46;;;;;;;18.37;3.87;;;3.90;99.90;;;;;;5019484;28;20238;-70
2021/12/10 05:45:14;;;;;;;31.37;5.50;;;3.80;99.90;;;;;;5023972;28;20225;-70
2021/12/10 05:47:42;;;;;;;24.00;5.17;;;3.80;99.90;;;;;;5022119;28;20214;-69
2021/12/10 05:50:11;;;;;;;20.17;4.97;;;3.90;99.90;;;;;;5024008;28;20225;-70
2021/12/10 05:52:40;;;;;;;21.03;5.37;;;3.90;99.90;;;;;;5013952;28;20332;-69
2021/12/10 05:55:08;;;;;;;24.77;5.60;;;3.80;99.90;;;;;;5016143;28;20293;-69
2021/12/10 05:57:35;;;;;;;19.50;4.47;;;3.80;99.90;;;;;;5016130;28;20210;-69
2021/12/10 06:00:02;;;;;;;22.37;4.87;;;3.90;99.90;;;;;;5013785;28;20292;-70
2021/12/10 06:02:37;;;;;;;27.03;5.93;;;3.80;99.90;;;;;;5020443;28;20321;-70
2021/12/10 06:05:07;;;;;;;16.03;3.90;;;3.80;99.90;;;;;;5030665;28;20702;-70
2021/12/10 06:07:34;;;;;;;24.90;5.70;;;3.80;99.90;;;;;;5024308;28;20218;-69
2021/12/10 06:10:01;;;;;;;21.87;6.13;;;3.80;99.90;;;;;;5010398;28;20334;-69
2021/12/10 06:12:28;;;;;;;19.77;4.73;;;3.80;99.90;;;;;;5013003;28;20238;-70
2021/12/10 06:14:55;;;;;;;20.83;4.97;;;3.80;99.90;;;;;;5011896;28;20206;-69
2021/12/10 06:17:22;;;;;;;25.07;5.70;;;3.80;99.90;;;;;;5009909;28;20681;-69
2021/12/10 06:19:49;;;;;;;26.43;6.57;;;3.80;99.90;;;;;;5008461;28;20211;-69
2021/12/10 06:22:17;;;;;;;22.13;5.27;;;3.70;99.90;;;;;;5010410;28;21895;-69
2021/12/10 06:24:44;;;;;;;24.93;5.80;;;3.70;99.90;;;;;;5022227;28;20213;-70
2021/12/10 06:27:11;;;;;;;27.97;5.93;;;3.70;99.90;;;;;;5024172;28;20222;-69
2021/12/10 06:29:41;;;;;;;27.47;6.17;;;3.70;99.90;;;;;;5025093;28;20209;-70
2021/12/10 06:32:09;;;;;;;28.30;5.87;;;3.70;99.90;;;;;;5003686;28;20246;-70
2021/12/10 06:34:36;;;;;;;25.13;6.67;;;3.70;99.90;;;;;;5007596;28;20778;-70
2021/12/10 06:37:05;;;;;;;32.47;6.60;;;3.70;99.90;;;;;;5015627;28;20214;-70
2021/12/10 06:39:33;;;;;;;28.47;6.30;;;3.60;99.90;;;;;;5031728;28;20220;-70
2021/12/10 06:42:02;;;;;;;30.00;6.80;;;3.60;99.90;;;;;;5023828;28;20229;-70
2021/12/10 06:44:29;;;;;;;19.50;5.20;;;3.60;99.90;;;;;;5023905;28;20210;-70
2021/12/10 06:46:56;;;;;;;24.40;5.50;;;3.50;99.90;;;;;;5026826;28;20590;-70
2021/12/10 06:49:23;;;;;;;19.57;4.90;;;3.60;99.90;;;;;;5025865;28;20657;-70
2021/12/10 06:51:51;;;;;;;23.87;5.60;;;3.60;99.90;;;;;;5024160;28;20226;-71
2021/12/10 06:54:18;;;;;;;20.87;4.83;;;3.60;99.90;;;;;;5026458;28;20225;-70
2021/12/10 06:56:47;;;;;;;23.03;5.03;;;4.00;99.90;;;;;;5026204;28;20494;-70
2021/12/10 06:59:13;;;;;;;20.13;4.80;;;3.60;99.90;;;;;;5023120;28;20209;-70
2021/12/10 07:01:43;;;;;;;26.47;5.27;;;3.70;99.90;;;;;;5025187;28;20226;-70
2021/12/10 07:04:12;;;;;;;23.40;5.10;;;3.70;99.90;;;;;;5026446;28;20373;-69
2021/12/10 07:06:43;;;;;;;20.37;4.43;;;3.60;99.90;;;;;;5013425;28;20336;-70
2021/12/10 07:09:14;;;;;;;26.93;6.03;;;3.70;99.90;;;;;;5015084;28;20217;-70
2021/12/10 07:11:41;;;;;;;25.10;5.83;;;3.70;99.90;;;;;;5029200;28;20281;-70
2021/12/10 07:14:09;;;;;;;18.43;4.53;;;3.60;99.90;;;;;;5024367;28;20218;-69
2021/12/10 07:16:36;;;;;;;31.20;5.50;;;3.60;99.90;;;;;;5023846;28;20694;-70
2021/12/10 07:19:05;;;;;;;24.03;4.90;;;3.70;99.90;;;;;;5026688;28;20666;-70
2021/12/10 07:21:34;;;;;;;22.50;5.33;;;3.70;99.90;;;;;;5019369;28;20824;-70
2021/12/10 07:24:03;;;;;;;20.77;4.70;;;3.70;99.90;;;;;;5025333;28;20206;-69
2021/12/10 07:26:31;;;;;;;23.00;5.60;;;3.70;99.90;;;;;;5024475;28;20209;-69
2021/12/10 07:28:58;;;;;;;22.37;4.80;;;3.70;99.90;;;;;;5028258;28;20210;-69
2021/12/10 07:31:28;;;;;;;27.30;5.63;;;3.70;99.90;;;;;;5022821;28;20229;-69
2021/12/10 07:33:55;;;;;;;28.60;6.27;;;3.70;99.90;;;;;;5024577;28;20598;-70
2021/12/10 07:36:22;;;;;;;22.13;5.30;;;3.70;99.90;;;;;;5022528;28;20308;-70
2021/12/10 07:38:50;;;;;;;18.80;4.43;;;3.80;99.90;;;;;;5025470;28;20282;-70
2021/12/10 07:41:17;;;;;;;22.83;5.13;;;3.80;99.90;;;;;;5024878;28;20221;-70
2021/12/10 07:43:44;;;;;;;19.40;4.67;;;3.90;99.90;;;;;;5034170;28;20213;-70
2021/12/10 07:46:12;;;;;;;19.07;4.43;;;3.90;99.90;;;;;;5026602;28;20213;-70
2021/12/10 07:48:42;;;;;;;21.47;4.87;;;3.90;99.90;;;;;;5008295;28;20214;-70
2021/12/10 07:51:14;;;;;;;22.53;5.07;;;4.00;99.90;;;;;;5023707;28;20237;-70
2021/12/10 07:53:43;;;;;;;20.13;4.53;;;4.00;99.90;;;;;;5026265;28;20260;-70
2021/12/10 07:56:12;;;;;;;23.20;5.23;;;4.00;99.90;;;;;;5032564;28;20691;-70
2021/12/10 07:58:42;;;;;;;18.90;4.50;;;4.00;99.90;;;;;;5020557;28;20214;-70
2021/12/10 08:01:13;;;;;;;24.10;5.03;;;4.20;99.90;;;;;;5016606;28;20205;-70
2021/12/10 08:03:42;;;;;;;22.97;5.03;;;4.20;99.90;;;;;;5025771;28;20289;-70
2021/12/10 08:06:09;;;;;;;19.63;4.80;;;4.20;99.90;;;;;;5024018;28;20217;-70
2021/12/10 08:08:36;;;;;;;21.43;4.70;;;4.30;99.90;;;;;;5026624;28;20236;-70
2021/12/10 08:11:04;;;;;;;21.20;4.93;;;4.40;99.90;;;;;;5026712;28;20225;-70
2021/12/10 08:13:31;;;;;;;21.53;5.20;;;4.40;99.90;;;;;;5024034;28;20219;-70
2021/12/10 08:15:59;;;;;;;30.60;6.13;;;4.50;99.90;;;;;;5022945;28;20210;-70
2021/12/10 08:18:26;;;;;;;18.50;4.67;;;4.50;99.90;;;;;;5024163;28;20574;-70
2021/12/10 08:20:54;;;;;;;25.10;5.27;;;4.60;99.90;;;;;;5032534;28;20694;-70
2021/12/10 08:23:21;;;;;;;20.47;4.63;;;4.70;99.90;;;;;;5018902;28;20682;-70
2021/12/10 08:25:49;;;;;;;22.90;5.07;;;4.80;99.90;;;;;;5020569;28;20213;-70
2021/12/10 08:28:18;;;;;;;21.23;4.67;;;4.80;99.90;;;;;;5025020;28;20277;-69
2021/12/10 08:30:45;;;;;;;21.83;5.20;;;5.00;99.90;;;;;;5025068;28;20225;-70
2021/12/10 08:33:13;;;;;;;22.03;5.23;;;5.00;99.90;;;;;;5025947;28;20233;-70
2021/12/10 08:35:43;;;;;;;33.10;7.10;;;5.00;99.90;;;;;;5022850;28;20978;-70
2021/12/10 08:38:12;;;;;;;23.80;5.53;;;5.10;99.90;;;;;;5013616;28;20721;-70
2021/12/10 08:40:49;;;;;;;24.00;5.10;;;5.20;99.90;;;;;;5008724;28;20614;-70
2021/12/10 08:43:16;;;;;;;20.97;5.13;;;5.30;99.90;;;;;;5014503;28;20234;-70
2021/12/10 08:45:47;;;;;;;18.87;4.57;;;5.20;99.90;;;;;;5026242;28;20209;-70
2021/12/10 08:48:14;;;;;;;25.30;5.17;;;5.20;99.90;;;;;;5023111;28;20217;-70
2021/12/10 08:50:42;;;;;;;22.30;4.90;;;5.30;99.90;;;;;;5018906;28;20214;-71
2021/12/10 08:53:13;;;;;;;22.07;4.60;;;5.30;99.90;;;;;;5028915;28;20290;-70
2021/12/10 08:55:42;;;;;;;22.87;5.23;;;5.40;99.90;;;;;;5023296;28;20214;-70
2021/12/10 08:58:11;;;;;;;22.60;4.97;;;5.40;99.90;;;;;;5020754;28;20214;-70
2021/12/10 09:00:40;;;;;;;23.53;5.23;;;5.40;99.90;;;;;;5020386;28;20211;-70
2021/12/10 09:03:07;;;;;;;18.03;4.77;;;5.40;99.90;;;;;;5021153;28;20681;-71
2021/12/10 09:05:34;;;;;;;19.53;4.50;;;5.40;99.90;;;;;;5008600;28;20228;-70
2021/12/10 09:08:02;;;;;;;23.97;4.93;;;5.50;99.90;;;;;;5023449;28;20221;-73
2021/12/10 09:10:34;;;;;;;20.23;4.67;;;5.50;99.90;;;;;;5023736;28;20217;-73
2021/12/10 09:13:01;;;;;;;23.70;5.43;;;5.50;99.90;;;;;;5014553;28;20304;-72
2021/12/10 09:15:29;;;;;;;21.73;5.00;;;5.50;99.90;;;;;;5013895;28;20331;-74
2021/12/10 09:17:58;;;;;;;17.70;4.17;;;5.50;99.90;;;;;;5021993;28;20217;-73
2021/12/10 09:20:30;;;;;;;27.77;6.07;;;5.50;99.90;;;;;;5022688;28;20252;-73
2021/12/10 09:22:57;;;;;;;24.83;5.33;;;5.60;99.90;;;;;;5023188;28;20277;-73
2021/12/10 09:25:25;;;;;;;23.50;5.40;;;5.70;99.90;;;;;;5021149;28;20209;-72
2021/12/10 09:27:55;;;;;;;23.30;5.07;;;5.70;99.90;;;;;;5020333;28;20214;-73
2021/12/10 09:30:24;;;;;;;22.83;5.27;;;5.80;99.90;;;;;;5020944;28;20242;-73
2021/12/10 09:32:51;;;;;;;22.33;5.23;;;5.90;99.90;;;;;;5022237;28;20234;-72
2021/12/10 09:35:22;;;;;;;23.17;5.47;;;6.00;99.90;;;;;;5017302;28;20214;-74
2021/12/10 09:37:50;;;;;;;21.77;5.13;;;6.20;99.90;;;;;;5020935;28;20211;-72
2021/12/10 09:40:23;;;;;;;21.63;4.80;;;6.40;99.90;;;;;;5026113;28;20696;-73
2021/12/10 09:42:50;;;;;;;21.97;5.17;;;6.50;99.90;;;;;;5017652;28;20222;-72
2021/12/10 09:45:21;;;;;;;20.77;4.53;;;6.60;99.90;;;;;;5025190;28;20396;-72
2021/12/10 09:47:49;;;;;;;22.30;5.23;;;6.70;99.90;;;;;;5022896;28;20206;-72
2021/12/10 09:50:17;;;;;;;19.30;4.77;;;6.80;99.90;;;;;;5021379;28;20222;-72
2021/12/10 09:52:45;;;;;;;16.60;3.90;;;6.90;99.90;;;;;;5023494;28;20244;-72
2021/12/10 09:55:17;;;;;;;19.77;4.57;;;6.90;99.90;;;;;;5025955;28;20699;-72
2021/12/10 09:57:47;;;;;;;17.30;4.23;;;6.90;99.90;;;;;;5023427;28;20218;-72
2021/12/10 10:00:21;;;;;;;26.63;5.13;;;7.40;99.90;;;;;;5026779;28;20211;-73
2021/12/10 10:02:48;;;;;;;22.87;5.17;;;6.90;99.90;;;;;;5027372;28;20226;-73
2021/12/10 10:05:17;;;;;;;23.03;5.20;;;6.80;99.90;;;;;;5021945;28;20218;-72
2021/12/10 10:07:51;;;;;;;22.67;5.57;;;7.70;99.90;;;;;;5022746;28;20206;-74
2021/12/10 10:10:18;;;;;;;18.30;4.80;;;6.60;99.90;;;;;;5027368;28;20214;-73
2021/12/10 10:12:50;;;;;;;19.70;4.23;;;6.60;99.90;;;;;;5025680;28;20248;-73
2021/12/10 10:15:21;;;;;;;22.43;5.20;;;6.60;99.90;;;;;;5023649;28;20225;-74
2021/12/10 10:17:49;;;;;;;19.00;4.63;;;6.60;99.90;;;;;;5021094;28;20238;-73
2021/12/10 10:20:19;;;;;;;18.97;4.70;;;6.60;99.90;;;;;;5028800;28;20763;-73
2021/12/10 10:22:46;;;;;;;22.27;5.23;;;6.60;99.90;;;;;;5020870;28;20238;-73
2021/12/10 10:25:16;;;;;;;21.97;5.17;;;6.50;99.90;;;;;;5025479;28;20584;-74
2021/12/10 10:27:43;;;;;;;18.10;4.63;;;6.50;99.90;;;;;;5023638;28;20213;-72
2021/12/10 10:30:14;;;;;;;19.73;4.67;;;6.60;99.90;;;;;;5014138;28;20651;-72
2021/12/10 10:32:45;;;;;;;20.60;4.80;;;6.70;99.90;;;;;;5015417;28;21204;-71
2021/12/10 10:35:17;;;;;;;16.47;4.30;;;6.70;99.90;;;;;;5027830;28;20307;-73
2021/12/10 10:37:45;;;;;;;23.60;5.23;;;6.70;99.90;;;;;;5008449;28;20209;-72
2021/12/10 10:40:15;;;;;;;18.10;4.67;;;6.70;99.90;;;;;;5013096;28;20705;-74
2021/12/10 10:42:43;;;;;;;23.87;5.27;;;6.70;99.90;;;;;;5013979;28;20266;-73
2021/12/10 10:45:17;;;;;;;25.17;5.77;;;6.70;99.90;;;;;;5017945;28;20203;-72
2021/12/10 10:47:46;;;;;;;23.60;5.60;;;6.60;99.90;;;;;;5013063;28;20701;-72
2021/12/10 10:50:15;;;;;;;20.83;5.17;;;6.60;99.90;;;;;;5016306;28;20733;-72
2021/12/10 10:52:45;;;;;;;20.17;4.67;;;6.50;99.90;;;;;;5023151;28;20230;-73
2021/12/10 10:55:22;;;;;;;15.77;4.27;;;6.50;99.90;;;;;;5026752;28;20221;-73
2021/12/10 10:57:53;;;;;;;20.37;4.87;;;6.50;99.90;;;;;;5024300;28;20210;-73
2021/12/10 11:00:29;;;;;;;24.13;5.30;;;6.50;99.90;;;;;;4998897;28;20235;-73
2021/12/10 11:03:03;;;;;;;20.83;4.93;;;6.50;99.90;;;;;;5029468;28;20230;-72
2021/12/10 11:05:31;;;;;;;20.83;4.53;;;6.50;99.90;;;;;;5025059;28;20560;-72
2021/12/10 11:08:00;;;;;;;21.67;4.43;;;6.60;99.90;;;;;;5023048;28;20302;-73
2021/12/10 11:10:31;;;;;;;20.13;4.27;;;6.70;99.90;;;;;;5028330;28;20213;-72
2021/12/10 11:13:14;;;;;;;19.90;4.63;;;6.70;99.90;;;;;;5007671;28;20282;-74
2021/12/10 11:15:59;;;;;;;22.57;5.13;;;6.70;99.90;;;;;;5020791;28;20250;-72
2021/12/10 11:18:28;;;;;;;19.60;4.73;;;6.80;99.90;;;;;;5019299;28;20213;-73
2021/12/10 11:20:55;;;;;;;22.37;4.70;;;6.80;99.90;;;;;;5016028;28;20743;-73
2021/12/10 11:23:25;;;;;;;18.10;4.57;;;6.80;99.90;;;;;;5016455;28;20229;-72
2021/12/10 11:25:55;;;;;;;21.20;5.00;;;6.80;99.90;;;;;;5013064;28;20210;-73
2021/12/10 11:28:26;;;;;;;19.97;4.60;;;6.80;99.90;;;;;;5017134;28;20216;-72
2021/12/10 11:31:03;;;;;;;20.53;4.93;;;6.90;99.90;;;;;;5014797;28;20596;-73
2021/12/10 11:33:34;;;;;;;17.43;4.40;;;7.00;99.90;;;;;;5016649;28;20588;-73
2021/12/10 11:36:07;;;;;;;16.03;4.17;;;7.00;99.90;;;;;;5013322;28;20310;-72
2021/12/10 11:38:35;;;;;;;16.37;3.90;;;7.00;99.90;;;;;;5010329;28;20242;-72
2021/12/10 11:41:04;;;;;;;23.10;5.47;;;7.10;99.90;;;;;;5016995;28;20214;-73
2021/12/10 11:43:56;;;;;;;21.90;5.23;;;7.10;99.90;;;;;;5021884;28;20206;-73
2021/12/10 11:46:45;;;;;;;19.57;4.40;;;7.10;99.90;;;;;;5022382;28;20287;-72
2021/12/10 11:49:21;;;;;;;21.10;5.00;;;7.20;99.90;;;;;;5018565;28;20214;-73
2021/12/10 11:51:54;;;;;;;20.83;4.53;;;7.20;99.90;;;;;;5023829;28;20365;-72
2021/12/10 11:54:32;;;;;;;17.10;3.90;;;7.30;99.90;;;;;;5023173;28;20213;-74
2021/12/10 11:57:03;;;;;;;17.93;4.57;;;7.50;99.90;;;;;;5020123;28;20211;-73
2021/12/10 11:59:32;;;;;;;17.47;4.07;;;7.50;99.90;;;;;;5024696;28;20205;-73
2021/12/10 12:02:04;;;;;;;20.87;5.10;;;7.60;99.90;;;;;;5022841;28;20233;-73
2021/12/10 12:04:41;;;;;;;23.97;5.50;;;7.70;99.90;;;;;;5013834;28;20210;-73
2021/12/10 12:07:33;;;;;;;22.83;5.70;;;7.90;99.90;;;;;;5013448;28;20225;-72
2021/12/10 12:10:05;;;;;;;20.60;4.77;;;8.00;99.90;;;;;;5014487;28;20286;-73
2021/12/10 12:12:39;;;;;;;21.60;5.03;;;8.00;99.90;;;;;;5016642;28;20253;-72
2021/12/10 12:15:17;;;;;;;21.73;4.33;;;8.10;99.90;;;;;;5009577;28;20224;-71
2021/12/10 12:17:46;;;;;;;18.77;4.63;;;8.00;99.90;;;;;;5015349;28;20237;-72
2021/12/10 12:20:31;;;;;;;21.80;4.77;;;8.00;99.90;;;;;;5013051;28;20221;-73
2021/12/10 12:25:49;;;;;;;21.53;4.90;;;8.00;99.90;;;;;;5014711;28;20231;-74
2021/12/10 12:28:18;;;;;;;20.70;4.80;;;7.90;99.90;;;;;;5017027;28;20596;-73
2021/12/10 12:30:55;;;;;;;18.50;4.47;;;7.90;99.90;;;;;;5014276;28;20656;-72
2021/12/10 12:33:25;;;;;;;20.57;4.87;;;7.90;99.90;;;;;;5014264;28;20240;-72
2021/12/10 12:35:54;;;;;;;23.17;5.10;;;7.90;99.90;;;;;;5014850;28;20207;-73
2021/12/10 12:38:26;;;;;;;24.93;5.57;;;7.90;99.90;;;;;;5018871;28;20434;-71
2021/12/10 12:41:12;;;;;;;19.60;4.80;;;7.80;99.90;;;;;;5015492;28;20990;-72
2021/12/10 12:43:40;;;;;;;18.97;4.53;;;7.90;99.90;;;;;;5014044;28;20217;-72
2021/12/10 12:46:09;;;;;;;19.20;4.73;;;7.90;99.90;;;;;;5012461;28;20221;-72
2021/12/10 12:48:38;;;;;;;14.50;3.93;;;8.00;99.90;;;;;;5013344;28;20218;-74
2021/12/10 12:51:19;;;;;;;19.47;4.50;;;7.90;99.90;;;;;;5020516;28;20208;-73
2021/12/10 12:53:47;;;;;;;21.60;5.53;;;7.90;99.90;;;;;;5017405;28;20317;-74
2021/12/10 12:56:16;;;;;;;15.00;3.53;;;7.90;99.90;;;;;;5013868;28;20217;-76
2021/12/10 12:58:47;;;;;;;20.73;4.63;;;8.00;99.90;;;;;;5014038;28;20219;-73
2021/12/10 13:01:19;;;;;;;17.43;4.23;;;7.90;99.90;;;;;;5014444;28;20218;-73
2021/12/10 13:03:50;;;;;;;18.80;4.43;;;8.00;99.90;;;;;;5014257;28;20212;-74
2021/12/10 13:06:21;;;;;;;20.20;4.60;;;7.80;99.90;;;;;;5017143;28;20218;-72
2021/12/10 13:08:59;;;;;;;18.20;4.17;;;7.80;99.90;;;;;;5024141;28;20280;-72